sensor_id;sensor_type;location;lat;lon;timestamp;pressure;altitude;pressure_sealevel;temperature;humidity
64675;BME280;51090;51.512;11.332;2023-08-30T00:00:45;98680.97;;;14.17;100.00
64675;BME280;51090;51.512;11.332;2023-08-30T00:03:11;98680.63;;;14.13;100.00
64675;BME280;51090;51.512;11.332;2023-08-30T00:05:41;98678.16;;;14.12;100.00
64675;BME280;51090;51.512;11.332;2023-08-30T00:08:08;98686.84;;;14.07;100.00
64675;BME280;51090;51.512;11.332;2023-08-30T00:10:35;98689.97;;;14.04;100.00
64675;BME280;51090;51.512;11.332;2023-08-30T00:13:01;98677.31;;;14.00;100.00
64675;BME280;51090;51.512;11.332;2023-08-30T00:15:27;98674.06;;;13.98;100.00
64675;BME280;51090;51.512;11.332;2023-08-30T00:17:53;98689.69;;;13.94;100.00
64675;BME280;51090;51.512;11.332;2023-08-30T00:20:20;98683.75;;;13.92;100.00
64675;BME280;51090;51.512;11.332;2023-08-30T00:22:47;98692.22;;;13.89;100.00
64675;BME280;51090;51.512;11.332;2023-08-30T00:25:14;98685.47;;;13.86;100.00
64675;BME280;51090;51.512;11.332;2023-08-30T00:27:41;98691.63;;;13.87;100.00
64675;BME280;51090;51.512;11.332;2023-08-30T00:30:08;98682.59;;;13.88;100.00
64675;BME280;51090;51.512;11.332;2023-08-30T00:32:35;98678.06;;;13.88;100.00
64675;BME280;51090;51.512;11.332;2023-08-30T00:35:01;98677.47;;;13.86;100.00
64675;BME280;51090;51.512;11.332;2023-08-30T00:37:28;98687.53;;;13.84;100.00
64675;BME280;51090;51.512;11.332;2023-08-30T00:39:54;98687.53;;;13.84;100.00
64675;BME280;51090;51.512;11.332;2023-08-30T00:42:20;98681.41;;;13.84;100.00
64675;BME280;51090;51.512;11.332;2023-08-30T00:44:46;98677.13;;;13.83;100.00
64675;BME280;51090;51.512;11.332;2023-08-30T00:47:12;98674.06;;;13.79;100.00
64675;BME280;51090;51.512;11.332;2023-08-30T00:49:39;98679.66;;;13.78;100.00
64675;BME280;51090;51.512;11.332;2023-08-30T00:52:08;98672.91;;;13.75;100.00
64675;BME280;51090;51.512;11.332;2023-08-30T00:54:35;98679.13;;;13.69;100.00
64675;BME280;51090;51.512;11.332;2023-08-30T00:57:02;98686.31;;;13.68;100.00
64675;BME280;51090;51.512;11.332;2023-08-30T00:59:28;98684.44;;;13.69;100.00
64675;BME280;51090;51.512;11.332;2023-08-30T01:01:56;98685.28;;;13.69;100.00
64675;BME280;51090;51.512;11.332;2023-08-30T01:04:23;98688.75;;;13.70;100.00
64675;BME280;51090;51.512;11.332;2023-08-30T01:06:50;98690.63;;;13.69;100.00
64675;BME280;51090;51.512;11.332;2023-08-30T01:09:16;98697.56;;;13.70;100.00
64675;BME280;51090;51.512;11.332;2023-08-30T01:14:37;98699.41;;;13.70;100.00
64675;BME280;51090;51.512;11.332;2023-08-30T01:17:05;98696.16;;;13.68;100.00
64675;BME280;51090;51.512;11.332;2023-08-30T01:19:56;98696.16;;;13.68;100.00
64675;BME280;51090;51.512;11.332;2023-08-30T01:22:43;98689.63;;;13.64;100.00
64675;BME280;51090;51.512;11.332;2023-08-30T01:26:05;98692.53;;;13.62;100.00
64675;BME280;51090;51.512;11.332;2023-08-30T01:28:24;98691.59;;;13.57;100.00
64675;BME280;51090;51.512;11.332;2023-08-30T01:30:53;98688.53;;;13.53;100.00
64675;BME280;51090;51.512;11.332;2023-08-30T01:33:24;98695.34;;;13.49;100.00
64675;BME280;51090;51.512;11.332;2023-08-30T01:35:57;98680.84;;;13.45;100.00
64675;BME280;51090;51.512;11.332;2023-08-30T01:38:29;98683.16;;;13.41;100.00
64675;BME280;51090;51.512;11.332;2023-08-30T01:40:56;98677.44;;;13.38;100.00
64675;BME280;51090;51.512;11.332;2023-08-30T01:43:28;98676.03;;;13.35;100.00
64675;BME280;51090;51.512;11.332;2023-08-30T01:45:55;98688.16;;;13.31;100.00
64675;BME280;51090;51.512;11.332;2023-08-30T01:48:25;98674.47;;;13.27;100.00
64675;BME280;51090;51.512;11.332;2023-08-30T01:50:52;98674.88;;;13.24;100.00
64675;BME280;51090;51.512;11.332;2023-08-30T01:53:21;98669.75;;;13.23;100.00
64675;BME280;51090;51.512;11.332;2023-08-30T01:55:48;98665.69;;;13.20;100.00
64675;BME280;51090;51.512;11.332;2023-08-30T01:58:14;98667.78;;;13.18;100.00
64675;BME280;51090;51.512;11.332;2023-08-30T02:00:40;98681.50;;;13.15;100.00
64675;BME280;51090;51.512;11.332;2023-08-30T02:03:10;98674.56;;;13.14;100.00
64675;BME280;51090;51.512;11.332;2023-08-30T02:05:40;98675.81;;;13.12;100.00
64675;BME280;51090;51.512;11.332;2023-08-30T02:08:35;98687.28;;;13.12;100.00
64675;BME280;51090;51.512;11.332;2023-08-30T02:11:07;98677.31;;;13.07;100.00
64675;BME280;51090;51.512;11.332;2023-08-30T02:13:37;98676.72;;;13.05;100.00
64675;BME280;51090;51.512;11.332;2023-08-30T02:16:04;98685.97;;;13.03;100.00
64675;BME280;51090;51.512;11.332;2023-08-30T02:18:31;98688.00;;;13.01;100.00
64675;BME280;51090;51.512;11.332;2023-08-30T02:20:57;98681.13;;;12.93;100.00
64675;BME280;51090;51.512;11.332;2023-08-30T02:23:24;98684.88;;;12.85;100.00
64675;BME280;51090;51.512;11.332;2023-08-30T02:25:50;98671.63;;;12.79;100.00
64675;BME280;51090;51.512;11.332;2023-08-30T02:28:17;98675.75;;;12.75;100.00
64675;BME280;51090;51.512;11.332;2023-08-30T02:30:43;98683.13;;;12.73;100.00
64675;BME280;51090;51.512;11.332;2023-08-30T02:33:09;98677.22;;;12.71;100.00
64675;BME280;51090;51.512;11.332;2023-08-30T02:35:35;98687.66;;;12.72;100.00
64675;BME280;51090;51.512;11.332;2023-08-30T02:38:01;98672.94;;;12.70;100.00
64675;BME280;51090;51.512;11.332;2023-08-30T02:40:30;98676.03;;;12.67;100.00
64675;BME280;51090;51.512;11.332;2023-08-30T02:42:57;98675.44;;;12.64;100.00
64675;BME280;51090;51.512;11.332;2023-08-30T02:45:23;98679.09;;;12.63;100.00
64675;BME280;51090;51.512;11.332;2023-08-30T02:47:49;98670.31;;;12.63;100.00
64675;BME280;51090;51.512;11.332;2023-08-30T02:50:16;98664.41;;;12.61;100.00
64675;BME280;51090;51.512;11.332;2023-08-30T02:52:42;98663.81;;;12.59;100.00
64675;BME280;51090;51.512;11.332;2023-08-30T02:55:08;98662.41;;;12.56;100.00
64675;BME280;51090;51.512;11.332;2023-08-30T02:57:34;98652.78;;;12.55;100.00
64675;BME280;51090;51.512;11.332;2023-08-30T03:00:00;98660.16;;;12.53;100.00
64675;BME280;51090;51.512;11.332;2023-08-30T03:02:26;98657.94;;;12.50;100.00
64675;BME280;51090;51.512;11.332;2023-08-30T03:04:52;98656.31;;;12.49;100.00
64675;BME280;51090;51.512;11.332;2023-08-30T03:07:18;98658.56;;;12.46;100.00
64675;BME280;51090;51.512;11.332;2023-08-30T03:09:44;98667.59;;;12.45;100.00
64675;BME280;51090;51.512;11.332;2023-08-30T03:12:10;98659.00;;;12.42;100.00
64675;BME280;51090;51.512;11.332;2023-08-30T03:14:36;98659.25;;;12.41;100.00
64675;BME280;51090;51.512;11.332;2023-08-30T03:17:02;98664.78;;;12.39;100.00
64675;BME280;51090;51.512;11.332;2023-08-30T03:19:28;98665.22;;;12.36;100.00
64675;BME280;51090;51.512;11.332;2023-08-30T03:21:54;98657.88;;;12.32;100.00
64675;BME280;51090;51.512;11.332;2023-08-30T03:24:20;98655.03;;;12.27;100.00
64675;BME280;51090;51.512;11.332;2023-08-30T03:26:46;98656.47;;;12.23;100.00
64675;BME280;51090;51.512;11.332;2023-08-30T03:29:12;98656.72;;;12.21;100.00
64675;BME280;51090;51.512;11.332;2023-08-30T03:31:38;98661.63;;;12.17;100.00
64675;BME280;51090;51.512;11.332;2023-08-30T03:34:04;98658.00;;;12.12;100.00
64675;BME280;51090;51.512;11.332;2023-08-30T03:36:30;98655.97;;;12.07;100.00
64675;BME280;51090;51.512;11.332;2023-08-30T03:38:56;98657.00;;;12.06;100.00
64675;BME280;51090;51.512;11.332;2023-08-30T03:41:22;98653.75;;;12.04;100.00
64675;BME280;51090;51.512;11.332;2023-08-30T03:43:48;98653.75;;;12.04;100.00
64675;BME280;51090;51.512;11.332;2023-08-30T03:46:14;98660.91;;;12.04;100.00
64675;BME280;51090;51.512;11.332;2023-08-30T03:48:40;98662.94;;;12.02;100.00
64675;BME280;51090;51.512;11.332;2023-08-30T03:51:06;98661.53;;;11.99;100.00
64675;BME280;51090;51.512;11.332;2023-08-30T03:53:33;98665.22;;;11.98;100.00
64675;BME280;51090;51.512;11.332;2023-08-30T03:55:59;98667.88;;;11.98;100.00
64675;BME280;51090;51.512;11.332;2023-08-30T03:58:25;98668.09;;;11.96;100.00
64675;BME280;51090;51.512;11.332;2023-08-30T04:00:51;98672.41;;;11.97;100.00
64675;BME280;51090;51.512;11.332;2023-08-30T04:03:17;98663.59;;;11.97;100.00
64675;BME280;51090;51.512;11.332;2023-08-30T04:05:43;98663.59;;;11.97;100.00
64675;BME280;51090;51.512;11.332;2023-08-30T04:08:09;98651.34;;;11.96;100.00
64675;BME280;51090;51.512;11.332;2023-08-30T04:10:40;98660.94;;;11.97;100.00
64675;BME280;51090;51.512;11.332;2023-08-30T04:13:07;98654.00;;;11.96;100.00
64675;BME280;51090;51.512;11.332;2023-08-30T04:15:37;98661.34;;;11.94;100.00
64675;BME280;51090;51.512;11.332;2023-08-30T04:18:05;98657.28;;;11.91;100.00
64675;BME280;51090;51.512;11.332;2023-08-30T04:20:32;98660.56;;;11.87;100.00
64675;BME280;51090;51.512;11.332;2023-08-30T04:23:01;98663.00;;;11.82;100.00
64675;BME280;51090;51.512;11.332;2023-08-30T04:25:31;98663.84;;;11.82;100.00
64675;BME280;51090;51.512;11.332;2023-08-30T04:27:57;98658.97;;;11.79;100.00
64675;BME280;51090;51.512;11.332;2023-08-30T04:30:24;98663.66;;;11.77;100.00
64675;BME280;51090;51.512;11.332;2023-08-30T04:32:50;98655.09;;;11.75;100.00
64675;BME280;51090;51.512;11.332;2023-08-30T04:35:16;98655.91;;;11.75;100.00
64675;BME280;51090;51.512;11.332;2023-08-30T04:37:42;98655.09;;;11.75;100.00
64675;BME280;51090;51.512;11.332;2023-08-30T04:40:09;98653.06;;;11.77;100.00
64675;BME280;51090;51.512;11.332;2023-08-30T04:42:36;98653.84;;;11.77;100.00
64675;BME280;51090;51.512;11.332;2023-08-30T04:45:03;98651.00;;;11.79;100.00
64675;BME280;51090;51.512;11.332;2023-08-30T04:47:30;98651.81;;;11.80;100.00
64675;BME280;51090;51.512;11.332;2023-08-30T04:49:56;98651.59;;;11.81;100.00
64675;BME280;51090;51.512;11.332;2023-08-30T04:52:23;98646.06;;;11.83;100.00
64675;BME280;51090;51.512;11.332;2023-08-30T04:54:49;98650.16;;;11.85;100.00
64675;BME280;51090;51.512;11.332;2023-08-30T04:57:16;98655.25;;;11.87;100.00
64675;BME280;51090;51.512;11.332;2023-08-30T04:59:45;98655.66;;;11.90;100.00
64675;BME280;51090;51.512;11.332;2023-08-30T05:02:11;98658.31;;;11.90;100.00
64675;BME280;51090;51.512;11.332;2023-08-30T05:04:38;98658.09;;;11.92;100.00
64675;BME280;51090;51.512;11.332;2023-08-30T05:07:04;98665.66;;;11.95;100.00
64675;BME280;51090;51.512;11.332;2023-08-30T05:09:31;98652.16;;;11.96;100.00
64675;BME280;51090;51.512;11.332;2023-08-30T05:11:58;98654.38;;;11.99;100.00
64675;BME280;51090;51.512;11.332;2023-08-30T05:14:24;98655.16;;;12.07;100.00
64675;BME280;51090;51.512;11.332;2023-08-30T05:16:50;98651.44;;;12.14;100.00
64675;BME280;51090;51.512;11.332;2023-08-30T05:19:16;98646.69;;;12.23;100.00
64675;BME280;51090;51.512;11.332;2023-08-30T05:21:43;98648.84;;;12.33;100.00
64675;BME280;51090;51.512;11.332;2023-08-30T05:24:09;98652.06;;;12.41;100.00
64675;BME280;51090;51.512;11.332;2023-08-30T05:26:36;98648.94;;;12.51;100.00
64675;BME280;51090;51.512;11.332;2023-08-30T05:29:03;98648.88;;;12.58;100.00
64675;BME280;51090;51.512;11.332;2023-08-30T05:31:29;98647.16;;;12.70;100.00
64675;BME280;51090;51.512;11.332;2023-08-30T05:33:55;98643.84;;;12.75;100.00
64675;BME280;51090;51.512;11.332;2023-08-30T05:36:21;98645.63;;;12.81;100.00
64675;BME280;51090;51.512;11.332;2023-08-30T05:38:47;98649.41;;;12.92;100.00
64675;BME280;51090;51.512;11.332;2023-08-30T05:41:13;98646.47;;;13.00;100.00
64675;BME280;51090;51.512;11.332;2023-08-30T05:43:39;98647.03;;;13.02;100.00
64675;BME280;51090;51.512;11.332;2023-08-30T05:46:05;98644.84;;;12.99;100.00
64675;BME280;51090;51.512;11.332;2023-08-30T05:48:38;98648.31;;;12.99;100.00
64675;BME280;51090;51.512;11.332;2023-08-30T05:51:04;98642.31;;;13.04;100.00
64675;BME280;51090;51.512;11.332;2023-08-30T05:53:30;98644.94;;;13.11;100.00
64675;BME280;51090;51.512;11.332;2023-08-30T05:55:56;98647.97;;;13.14;100.00
64675;BME280;51090;51.512;11.332;2023-08-30T05:58:22;98645.00;;;13.22;100.00
64675;BME280;51090;51.512;11.332;2023-08-30T06:00:48;98640.44;;;13.29;100.00
64675;BME280;51090;51.512;11.332;2023-08-30T06:03:14;98646.28;;;13.38;100.00
64675;BME280;51090;51.512;11.332;2023-08-30T06:05:40;98640.91;;;13.45;100.00
64675;BME280;51090;51.512;11.332;2023-08-30T06:08:06;98638.38;;;13.50;100.00
64675;BME280;51090;51.512;11.332;2023-08-30T06:10:33;98640.38;;;13.55;100.00
64675;BME280;51090;51.512;11.332;2023-08-30T06:12:59;98640.72;;;13.58;100.00
64675;BME280;51090;51.512;11.332;2023-08-30T06:15:27;98639.47;;;13.61;100.00
64675;BME280;51090;51.512;11.332;2023-08-30T06:17:53;98640.41;;;13.66;100.00
64675;BME280;51090;51.512;11.332;2023-08-30T06:20:19;98643.22;;;13.71;100.00
64675;BME280;51090;51.512;11.332;2023-08-30T06:22:45;98645.81;;;13.78;100.00
64675;BME280;51090;51.512;11.332;2023-08-30T06:25:11;98646.56;;;13.85;100.00
64675;BME280;51090;51.512;11.332;2023-08-30T06:27:56;98650.66;;;14.00;100.00
64675;BME280;51090;51.512;11.332;2023-08-30T06:30:23;98643.75;;;14.10;100.00
64675;BME280;51090;51.512;11.332;2023-08-30T06:32:49;98650.28;;;14.26;100.00
64675;BME280;51090;51.512;11.332;2023-08-30T06:35:15;98640.47;;;14.38;100.00
64675;BME280;51090;51.512;11.332;2023-08-30T06:37:41;98643.72;;;14.52;100.00
64675;BME280;51090;51.512;11.332;2023-08-30T06:40:08;98644.13;;;14.68;100.00
64675;BME280;51090;51.512;11.332;2023-08-30T06:42:34;98641.44;;;14.79;100.00
64675;BME280;51090;51.512;11.332;2023-08-30T06:45:01;98639.59;;;14.92;100.00
64675;BME280;51090;51.512;11.332;2023-08-30T06:47:27;98642.28;;;15.03;100.00
64675;BME280;51090;51.512;11.332;2023-08-30T06:49:53;98641.13;;;15.11;100.00
64675;BME280;51090;51.512;11.332;2023-08-30T06:52:19;98650.38;;;15.20;100.00
64675;BME280;51090;51.512;11.332;2023-08-30T06:54:45;98648.19;;;15.29;100.00
64675;BME280;51090;51.512;11.332;2023-08-30T06:57:11;98651.06;;;15.39;100.00
64675;BME280;51090;51.512;11.332;2023-08-30T06:59:37;98650.13;;;15.45;100.00
64675;BME280;51090;51.512;11.332;2023-08-30T07:02:04;98643.84;;;15.52;100.00
64675;BME280;51090;51.512;11.332;2023-08-30T07:04:30;98642.88;;;15.58;100.00
64675;BME280;51090;51.512;11.332;2023-08-30T07:06:56;98643.22;;;15.61;100.00
64675;BME280;51090;51.512;11.332;2023-08-30T07:09:22;98642.19;;;15.62;100.00
64675;BME280;51090;51.512;11.332;2023-08-30T07:11:54;98643.91;;;15.68;100.00
64675;BME280;51090;51.512;11.332;2023-08-30T07:14:21;98644.94;;;15.79;100.00
64675;BME280;51090;51.512;11.332;2023-08-30T07:16:47;98640.13;;;15.93;100.00
64675;BME280;51090;51.512;11.332;2023-08-30T07:19:15;98648.56;;;16.02;100.00
64675;BME280;51090;51.512;11.332;2023-08-30T07:21:42;98643.09;;;16.08;100.00
64675;BME280;51090;51.512;11.332;2023-08-30T07:24:08;98642.59;;;16.11;100.00
64675;BME280;51090;51.512;11.332;2023-08-30T07:26:35;98636.44;;;16.11;100.00
64675;BME280;51090;51.512;11.332;2023-08-30T07:29:01;98638.69;;;16.02;100.00
64675;BME280;51090;51.512;11.332;2023-08-30T07:31:28;98636.41;;;15.94;100.00
64675;BME280;51090;51.512;11.332;2023-08-30T07:33:54;98635.25;;;15.90;100.00
64675;BME280;51090;51.512;11.332;2023-08-30T07:36:21;98629.91;;;15.90;100.00
64675;BME280;51090;51.512;11.332;2023-08-30T07:38:47;98636.31;;;15.89;100.00
64675;BME280;51090;51.512;11.332;2023-08-30T07:41:13;98639.47;;;15.86;100.00
64675;BME280;51090;51.512;11.332;2023-08-30T07:43:39;98636.88;;;15.91;100.00
64675;BME280;51090;51.512;11.332;2023-08-30T07:46:05;98633.72;;;15.94;100.00
64675;BME280;51090;51.512;11.332;2023-08-30T07:48:31;98638.00;;;15.95;100.00
64675;BME280;51090;51.512;11.332;2023-08-30T07:50:57;98640.31;;;16.03;100.00
64675;BME280;51090;51.512;11.332;2023-08-30T07:53:23;98634.69;;;16.17;100.00
64675;BME280;51090;51.512;11.332;2023-08-30T07:55:50;98639.72;;;16.30;100.00
64675;BME280;51090;51.512;11.332;2023-08-30T07:58:17;98633.72;;;16.40;100.00
64675;BME280;51090;51.512;11.332;2023-08-30T08:00:44;98631.22;;;16.50;100.00
64675;BME280;51090;51.512;11.332;2023-08-30T08:03:10;98635.19;;;16.64;100.00
64675;BME280;51090;51.512;11.332;2023-08-30T08:05:36;98638.59;;;16.76;100.00
64675;BME280;51090;51.512;11.332;2023-08-30T08:08:03;98637.25;;;16.91;100.00
64675;BME280;51090;51.512;11.332;2023-08-30T08:10:33;98636.63;;;17.06;100.00
64675;BME280;51090;51.512;11.332;2023-08-30T08:13:00;98641.59;;;17.14;100.00
64675;BME280;51090;51.512;11.332;2023-08-30T08:15:26;98634.78;;;17.28;100.00
64675;BME280;51090;51.512;11.332;2023-08-30T08:17:52;98627.44;;;17.40;100.00
64675;BME280;51090;51.512;11.332;2023-08-30T08:20:18;98629.19;;;17.52;100.00
64675;BME280;51090;51.512;11.332;2023-08-30T08:22:44;98622.84;;;17.58;100.00
64675;BME280;51090;51.512;11.332;2023-08-30T08:25:11;98625.06;;;17.66;100.00
64675;BME280;51090;51.512;11.332;2023-08-30T08:27:37;98621.19;;;17.79;100.00
64675;BME280;51090;51.512;11.332;2023-08-30T08:30:04;98626.94;;;17.88;100.00
64675;BME280;51090;51.512;11.332;2023-08-30T08:32:30;98621.16;;;17.96;100.00
64675;BME280;51090;51.512;11.332;2023-08-30T08:34:57;98616.09;;;17.99;100.00
64675;BME280;51090;51.512;11.332;2023-08-30T08:37:23;98620.69;;;18.04;100.00
64675;BME280;51090;51.512;11.332;2023-08-30T08:39:49;98604.69;;;18.14;100.00
64675;BME280;51090;51.512;11.332;2023-08-30T08:42:18;98617.72;;;18.33;100.00
64675;BME280;51090;51.512;11.332;2023-08-30T08:44:47;98611.09;;;18.40;100.00
64675;BME280;51090;51.512;11.332;2023-08-30T08:47:17;98619.50;;;18.54;100.00
64675;BME280;51090;51.512;11.332;2023-08-30T08:49:44;98611.03;;;18.72;100.00
64675;BME280;51090;51.512;11.332;2023-08-30T08:52:11;98622.06;;;19.08;100.00
64675;BME280;51090;51.512;11.332;2023-08-30T08:54:39;98621.22;;;19.55;100.00
64675;BME280;51090;51.512;11.332;2023-08-30T08:57:07;98622.72;;;20.04;100.00
64675;BME280;51090;51.512;11.332;2023-08-30T08:59:33;98618.72;;;20.48;100.00
64675;BME280;51090;51.512;11.332;2023-08-30T09:02:00;98621.13;;;20.90;97.20
64675;BME280;51090;51.512;11.332;2023-08-30T09:04:30;98621.28;;;21.29;94.42
64675;BME280;51090;51.512;11.332;2023-08-30T09:06:58;98619.03;;;21.62;93.59
64675;BME280;51090;51.512;11.332;2023-08-30T09:09:24;98626.41;;;21.96;92.85
64675;BME280;51090;51.512;11.332;2023-08-30T09:11:50;98620.63;;;22.23;91.27
64675;BME280;51090;51.512;11.332;2023-08-30T09:14:16;98611.28;;;22.39;89.41
64675;BME280;51090;51.512;11.332;2023-08-30T09:16:42;98613.31;;;22.58;87.88
64675;BME280;51090;51.512;11.332;2023-08-30T09:19:08;98616.97;;;22.72;86.59
64675;BME280;51090;51.512;11.332;2023-08-30T09:21:36;98619.56;;;22.82;81.57
64675;BME280;51090;51.512;11.332;2023-08-30T09:24:04;98614.91;;;22.88;79.97
64675;BME280;51090;51.512;11.332;2023-08-30T09:26:31;98611.06;;;22.99;81.90
64675;BME280;51090;51.512;11.332;2023-08-30T09:29:06;98619.50;;;23.17;75.88
64675;BME280;51090;51.512;11.332;2023-08-30T09:31:39;98615.03;;;23.31;77.73
64675;BME280;51090;51.512;11.332;2023-08-30T09:34:08;98613.50;;;23.25;77.55
64675;BME280;51090;51.512;11.332;2023-08-30T09:36:41;98626.25;;;23.19;76.73
64675;BME280;51090;51.512;11.332;2023-08-30T09:39:12;98621.72;;;23.15;75.29
64675;BME280;51090;51.512;11.332;2023-08-30T09:41:49;98630.47;;;23.31;74.70
64675;BME280;51090;51.512;11.332;2023-08-30T09:44:20;98604.31;;;23.45;75.78
64675;BME280;51090;51.512;11.332;2023-08-30T09:46:54;98620.56;;;23.88;72.30
64675;BME280;51090;51.512;11.332;2023-08-30T09:49:25;98622.31;;;24.17;73.86
64675;BME280;51090;51.512;11.332;2023-08-30T09:51:53;98623.03;;;24.41;74.31
64675;BME280;51090;51.512;11.332;2023-08-30T09:54:21;98622.66;;;24.48;72.08
64675;BME280;51090;51.512;11.332;2023-08-30T09:56:47;98619.16;;;24.47;70.62
64675;BME280;51090;51.512;11.332;2023-08-30T09:59:14;98613.50;;;24.44;70.87
64675;BME280;51090;51.512;11.332;2023-08-30T10:01:42;98618.78;;;24.54;71.79
64675;BME280;51090;51.512;11.332;2023-08-30T10:04:09;98614.72;;;24.70;71.47
64675;BME280;51090;51.512;11.332;2023-08-30T10:06:37;98605.97;;;24.73;68.84
64675;BME280;51090;51.512;11.332;2023-08-30T10:09:03;98614.59;;;24.62;69.00
64675;BME280;51090;51.512;11.332;2023-08-30T10:11:36;98607.78;;;24.64;64.46
64675;BME280;51090;51.512;11.332;2023-08-30T10:14:06;98606.72;;;24.79;66.33
64675;BME280;51090;51.512;11.332;2023-08-30T10:16:45;98612.13;;;24.79;63.57
64675;BME280;51090;51.512;11.332;2023-08-30T10:19:15;98607.88;;;24.73;65.23
64675;BME280;51090;51.512;11.332;2023-08-30T10:21:44;98609.94;;;24.29;62.09
64675;BME280;51090;51.512;11.332;2023-08-30T10:24:14;98586.91;;;23.94;63.96
64675;BME280;51090;51.512;11.332;2023-08-30T10:26:43;98589.38;;;23.72;65.66
64675;BME280;51090;51.512;11.332;2023-08-30T10:29:11;98588.19;;;23.59;66.74
64675;BME280;51090;51.512;11.332;2023-08-30T10:31:38;98592.94;;;23.67;67.53
64675;BME280;51090;51.512;11.332;2023-08-30T10:34:15;98596.13;;;23.74;64.83
64675;BME280;51090;51.512;11.332;2023-08-30T10:36:45;98601.47;;;23.79;68.27
64675;BME280;51090;51.512;11.332;2023-08-30T10:39:36;98592.88;;;23.29;62.63
64675;BME280;51090;51.512;11.332;2023-08-30T10:42:12;98600.59;;;23.17;66.35
64675;BME280;51090;51.512;11.332;2023-08-30T10:44:52;98604.41;;;22.87;63.83
64675;BME280;51090;51.512;11.332;2023-08-30T10:47:29;98601.75;;;22.81;66.46
64675;BME280;51090;51.512;11.332;2023-08-30T10:49:59;98600.66;;;22.82;66.41
64675;BME280;51090;51.512;11.332;2023-08-30T10:52:27;98599.91;;;22.77;68.22
64675;BME280;51090;51.512;11.332;2023-08-30T10:55:04;98599.81;;;22.87;67.36
64675;BME280;51090;51.512;11.332;2023-08-30T10:57:30;98607.84;;;22.97;69.24
64675;BME280;51090;51.512;11.332;2023-08-30T11:02:51;98598.56;;;23.03;67.70
64675;BME280;51090;51.512;11.332;2023-08-30T11:05:21;98599.63;;;23.08;67.40
64675;BME280;51090;51.512;11.332;2023-08-30T11:07:48;98593.63;;;23.11;67.85
64675;BME280;51090;51.512;11.332;2023-08-30T11:10:18;98589.38;;;23.04;68.15
64675;BME280;51090;51.512;11.332;2023-08-30T11:12:45;98588.34;;;22.95;65.57
64675;BME280;51090;51.512;11.332;2023-08-30T11:15:13;98591.34;;;22.94;66.13
64675;BME280;51090;51.512;11.332;2023-08-30T11:17:40;98582.78;;;22.87;64.36
64675;BME280;51090;51.512;11.332;2023-08-30T11:22:45;98575.94;;;22.65;60.05
64675;BME280;51090;51.512;11.332;2023-08-30T11:25:13;98592.03;;;22.80;63.97
64675;BME280;51090;51.512;11.332;2023-08-30T11:27:40;98588.28;;;23.06;65.69
64675;BME280;51090;51.512;11.332;2023-08-30T11:30:08;98580.75;;;23.02;63.17
64675;BME280;51090;51.512;11.332;2023-08-30T11:32:36;98579.94;;;22.73;63.87
64675;BME280;51090;51.512;11.332;2023-08-30T11:35:03;98587.94;;;22.83;65.42
64675;BME280;51090;51.512;11.332;2023-08-30T11:37:29;98591.25;;;23.04;66.36
64675;BME280;51090;51.512;11.332;2023-08-30T11:39:56;98590.28;;;23.19;64.65
64675;BME280;51090;51.512;11.332;2023-08-30T11:42:22;98585.28;;;23.31;65.19
64675;BME280;51090;51.512;11.332;2023-08-30T11:44:50;98585.69;;;23.43;65.49
64675;BME280;51090;51.512;11.332;2023-08-30T11:47:24;98589.84;;;23.55;62.01
64675;BME280;51090;51.512;11.332;2023-08-30T11:49:55;98581.16;;;23.58;59.94
64675;BME280;51090;51.512;11.332;2023-08-30T11:52:23;98579.47;;;23.62;63.48
64675;BME280;51090;51.512;11.332;2023-08-30T11:54:50;98582.91;;;23.67;64.79
64675;BME280;51090;51.512;11.332;2023-08-30T11:57:16;98588.00;;;23.93;64.96
64675;BME280;51090;51.512;11.332;2023-08-30T11:59:42;98581.31;;;24.04;61.49
64675;BME280;51090;51.512;11.332;2023-08-30T12:02:09;98578.19;;;24.16;61.71
64675;BME280;51090;51.512;11.332;2023-08-30T12:04:45;98573.50;;;24.54;59.84
64675;BME280;51090;51.512;11.332;2023-08-30T12:07:21;98576.19;;;24.87;57.19
64675;BME280;51090;51.512;11.332;2023-08-30T12:09:48;98577.19;;;25.05;61.21
64675;BME280;51090;51.512;11.332;2023-08-30T12:12:14;98569.94;;;25.14;60.13
64675;BME280;51090;51.512;11.332;2023-08-30T12:14:40;98570.47;;;25.30;60.16
64675;BME280;51090;51.512;11.332;2023-08-30T12:17:08;98572.19;;;25.40;59.42
64675;BME280;51090;51.512;11.332;2023-08-30T12:19:34;98561.03;;;25.41;58.67
64675;BME280;51090;51.512;11.332;2023-08-30T12:22:09;98560.75;;;25.29;54.54
64675;BME280;51090;51.512;11.332;2023-08-30T12:24:44;98563.53;;;25.38;55.91
64675;BME280;51090;51.512;11.332;2023-08-30T12:27:10;98566.06;;;25.34;59.50
64675;BME280;51090;51.512;11.332;2023-08-30T12:29:36;98564.16;;;25.35;59.78
64675;BME280;51090;51.512;11.332;2023-08-30T12:32:02;98561.38;;;25.62;60.12
64675;BME280;51090;51.512;11.332;2023-08-30T12:34:28;98568.25;;;25.96;59.48
64675;BME280;51090;51.512;11.332;2023-08-30T12:36:54;98573.75;;;26.27;59.20
64675;BME280;51090;51.512;11.332;2023-08-30T12:39:20;98565.00;;;26.53;58.82
64675;BME280;51090;51.512;11.332;2023-08-30T12:41:46;98563.94;;;26.63;54.67
64675;BME280;51090;51.512;11.332;2023-08-30T12:44:12;98556.63;;;26.49;55.34
64675;BME280;51090;51.512;11.332;2023-08-30T12:46:38;98550.72;;;26.25;56.98
64675;BME280;51090;51.512;11.332;2023-08-30T12:49:04;98555.06;;;26.26;58.16
64675;BME280;51090;51.512;11.332;2023-08-30T12:51:30;98558.25;;;26.28;57.92
64675;BME280;51090;51.512;11.332;2023-08-30T12:53:56;98552.47;;;26.21;57.91